Forside
METAR-TAF:

METAR-TAF

Lufthavne :

José Martí Internationale Lufthavn

Havana, Cuba

Breddekreds: 22-59N, længdekreds: 082-24W, højde: 59 m

Aktuelle vejr

Denne rapport blev lavet for 35 minutter siden, kl. 09:55 UTC
Vind 11 kt fra nord
Temperatur 23°C
Fugtighed 83%
Tryk 1016 hPa
Sigt: 9000 m
Brudte skyer i en højde af 2600 ft

METAR: MUHA 160955Z 01011KT 9000 BKN026 23/20 Q1016

Tid: 05:30 (10:30 UTC)

Vejrudsigter

Denne rapport blev lavet for 5 timer og 30 minutter siden, kl. 05:00 UTC
Foreløbig gælder fra 16 på 06 UTC til 17 på 06 UTC
Vind 8 kt fra nord
Sigt: 9000 m
Brudte skyer i en højde af 3000 ft
ændring
fra 16 på 13 UTC til 16 på 15 UTC
Vind 13 kt fra nord
ændring
fra 17 på 04 UTC til 17 på 06 UTC
Vind 5 kt fra nord

TAF: MUHA 160500Z 1606/1706 36008KT 9000 BKN030 BECMG 1613/1615 36013KT BECMG 1704/1706 36005KT

Vejrobservationer og prognoser fra mere end 4000 lufthavne (METAR og TAF).

De gule og røde prikker repræsenterer de meteorologiske stationer.

Flyt musen over at se navnet på stationen.

Så klik over at se vejr observationer og prognoser.

At skifte det kort: Klik på de grønne knapper med et sort kors for at zoome ind; på den grønne knap med en bindestreg for at zoome ud; eller på de grønne pile for tilstødende kort.


METAR-TAF: